createdAt,value
2023-01-25T00:02:22.529Z,33.93
2023-01-25T00:04:50.938Z,29.10
2023-01-25T00:07:19.384Z,36.80
2023-01-25T00:09:47.786Z,34.03
2023-01-25T00:12:16.264Z,30.77
2023-01-25T00:14:44.674Z,29.57
2023-01-25T00:17:13.113Z,30.37
2023-01-25T00:19:41.514Z,34.00
2023-01-25T00:22:09.911Z,28.00
2023-01-25T00:24:38.522Z,32.17
2023-01-25T00:27:06.940Z,31.43
2023-01-25T00:29:35.307Z,35.50
2023-01-25T00:33:17.348Z,33.97
2023-01-25T00:35:58.471Z,33.97
2023-01-25T00:38:35.057Z,33.50
2023-01-25T00:41:03.535Z,30.90
2023-01-25T00:43:31.887Z,31.90
2023-01-25T00:46:03.201Z,32.60
2023-01-25T00:48:31.759Z,29.63
2023-01-25T00:51:03.320Z,33.90
2023-01-25T00:53:31.706Z,34.20
2023-01-25T00:56:00.113Z,33.87
2023-01-25T00:58:28.932Z,31.57
2023-01-25T01:00:58.344Z,29.47
2023-01-25T01:03:26.761Z,32.13
2023-01-25T01:06:35.373Z,32.57
2023-01-25T01:09:04.160Z,26.67
2023-01-25T01:11:32.537Z,31.30
2023-01-25T01:15:14.559Z,30.50
2023-01-25T01:18:56.676Z,34.03
2023-01-25T01:21:25.343Z,32.67
2023-01-25T01:23:54.981Z,34.03
2023-01-25T01:26:23.493Z,34.57
2023-01-25T01:28:52.071Z,33.07
2023-01-25T01:31:24.250Z,34.70
2023-01-25T01:33:54.826Z,37.40
2023-01-25T01:36:29.614Z,33.17
2023-01-25T01:38:59.038Z,30.17
2023-01-25T01:41:27.715Z,28.27
2023-01-25T01:43:56.115Z,34.17
2023-01-25T01:46:40.073Z,33.93
2023-01-25T01:49:19.998Z,34.93
2023-01-25T01:52:02.082Z,33.67
2023-01-25T01:54:37.902Z,32.30
2023-01-25T01:57:32.633Z,34.23
2023-01-25T02:00:11.924Z,33.30
2023-01-25T02:02:46.850Z,29.90
2023-01-25T02:05:40.753Z,31.23
2023-01-25T02:08:12.499Z,33.23
2023-01-25T02:10:42.600Z,31.57
2023-01-25T02:13:11.561Z,32.07
2023-01-25T02:15:48.110Z,30.47
2023-01-25T02:18:16.787Z,28.63
2023-01-25T02:20:52.141Z,29.37
2023-01-25T02:23:50.840Z,30.10
2023-01-25T02:26:20.213Z,31.53
2023-01-25T02:28:58.865Z,27.83
2023-01-25T02:31:27.823Z,32.30
2023-01-25T02:33:56.496Z,29.00
2023-01-25T02:36:34.712Z,28.47
2023-01-25T02:39:11.467Z,33.33
2023-01-25T02:41:42.288Z,33.70
2023-01-25T02:44:22.984Z,29.20
2023-01-25T02:46:51.475Z,29.17
2023-01-25T02:49:20.820Z,32.13
2023-01-25T02:51:55.821Z,31.23
2023-01-25T02:54:25.799Z,28.30
2023-01-25T02:56:54.359Z,30.57
2023-01-25T02:59:23.577Z,29.23
2023-01-25T03:01:52.165Z,30.27
2023-01-25T03:04:20.707Z,30.43
2023-01-25T03:06:49.068Z,29.77
2023-01-25T03:09:17.439Z,32.63
2023-01-25T03:11:45.872Z,27.17
2023-01-25T03:14:14.306Z,28.27
2023-01-25T03:16:42.711Z,32.63
2023-01-25T03:19:11.081Z,29.30
2023-01-25T03:21:41.017Z,34.27
2023-01-25T03:24:11.463Z,31.97
2023-01-25T03:26:54.117Z,29.93
2023-01-25T03:29:22.762Z,30.17
2023-01-25T03:31:51.547Z,32.73
2023-01-25T03:34:20.337Z,34.20
2023-01-25T03:36:49.158Z,31.10
2023-01-25T03:39:17.793Z,31.93
2023-01-25T03:41:46.408Z,30.30
2023-01-25T03:44:15.293Z,28.07
2023-01-25T03:46:44.211Z,31.07
2023-01-25T03:49:13.170Z,30.70
2023-01-25T03:51:41.825Z,28.37
2023-01-25T03:54:10.413Z,29.73
2023-01-25T03:56:39.622Z,28.33
2023-01-25T03:59:08.582Z,28.63
2023-01-25T04:01:37.386Z,34.73
2023-01-25T04:04:06.050Z,26.90
2023-01-25T04:06:34.729Z,30.10
2023-01-25T04:09:03.366Z,29.50
2023-01-25T04:11:32.499Z,26.50
2023-01-25T04:14:01.426Z,30.70
2023-01-25T04:16:31.522Z,34.50
2023-01-25T04:19:00.418Z,30.53
2023-01-25T04:21:29.375Z,35.30
2023-01-25T04:23:58.078Z,30.17
2023-01-25T04:26:27.085Z,38.43
2023-01-25T04:28:55.875Z,31.03
2023-01-25T04:31:24.597Z,32.77
2023-01-25T04:33:53.257Z,31.27
2023-01-25T04:36:21.888Z,31.00
2023-01-25T04:38:50.742Z,31.17
2023-01-25T04:41:19.382Z,33.50
2023-01-25T04:43:47.964Z,30.83
2023-01-25T04:46:16.767Z,33.63
2023-01-25T04:48:45.690Z,31.47
2023-01-25T04:51:15.133Z,29.63
2023-01-25T04:53:43.849Z,34.80
2023-01-25T04:56:12.413Z,30.53
2023-01-25T04:58:41.140Z,32.53
2023-01-25T05:01:10.386Z,26.50
2023-01-25T05:03:39.170Z,26.50
2023-01-25T05:06:08.027Z,28.97
2023-01-25T05:08:36.902Z,32.73
2023-01-25T05:11:05.771Z,28.80
2023-01-25T05:13:35.467Z,31.33
2023-01-25T05:16:09.017Z,28.13
2023-01-25T05:18:47.950Z,28.13
2023-01-25T05:21:33.557Z,31.73
2023-01-25T05:24:02.210Z,29.03
2023-01-25T05:26:48.141Z,27.13
2023-01-25T05:29:17.508Z,28.30
2023-01-25T05:31:46.264Z,30.40
2023-01-25T05:34:15.225Z,32.77
2023-01-25T05:36:43.832Z,33.30
2023-01-25T05:39:12.522Z,30.87
2023-01-25T05:41:41.201Z,30.37
2023-01-25T05:44:09.876Z,30.33
2023-01-25T05:46:38.542Z,28.60
2023-01-25T05:49:07.266Z,29.30
2023-01-25T05:51:36.517Z,31.37
2023-01-25T05:54:06.132Z,26.87
2023-01-25T05:56:35.391Z,30.03
2023-01-25T05:59:04.284Z,35.53
2023-01-25T06:01:32.959Z,33.43
2023-01-25T06:04:01.879Z,32.77
2023-01-25T06:06:30.795Z,33.97
2023-01-25T06:08:59.471Z,30.77
2023-01-25T06:11:28.070Z,23.97
2023-01-25T06:13:56.781Z,25.23
2023-01-25T06:16:25.442Z,28.50
2023-01-25T06:18:54.475Z,22.97
2023-01-25T06:21:23.129Z,29.43
2023-01-25T06:23:51.801Z,28.30
2023-01-25T06:26:20.912Z,29.20
2023-01-25T06:28:50.059Z,29.80
2023-01-25T06:31:20.175Z,30.67
2023-01-25T06:33:53.207Z,33.60
2023-01-25T06:36:23.941Z,28.77
2023-01-25T06:38:53.721Z,30.77
2023-01-25T06:41:22.863Z,32.93
2023-01-25T06:43:56.276Z,33.87
2023-01-25T06:46:25.050Z,32.53
2023-01-25T06:48:53.720Z,30.60
2023-01-25T06:51:22.575Z,29.10
2023-01-25T06:53:51.286Z,27.80
2023-01-25T06:56:23.670Z,30.33
2023-01-25T06:58:52.925Z,26.23
2023-01-25T07:01:27.330Z,24.53
2023-01-25T07:03:59.194Z,28.20
2023-01-25T07:06:34.747Z,30.00
2023-01-25T07:09:14.050Z,29.73
2023-01-25T07:11:42.673Z,29.80
2023-01-25T07:14:11.220Z,29.30
2023-01-25T07:16:39.987Z,32.23
2023-01-25T07:19:13.359Z,29.30
2023-01-25T07:21:42.324Z,29.60
2023-01-25T07:24:18.012Z,26.20
2023-01-25T07:26:46.666Z,26.80
2023-01-25T07:29:17.154Z,20.20
2023-01-25T07:31:45.851Z,19.63
2023-01-25T07:34:15.382Z,20.93
2023-01-25T07:36:44.873Z,22.50
2023-01-25T07:39:18.307Z,24.80
2023-01-25T07:41:47.408Z,21.03
2023-01-25T07:44:16.076Z,23.93
2023-01-25T07:46:44.892Z,22.77
2023-01-25T07:49:13.519Z,26.60
2023-01-25T07:51:42.395Z,23.10
2023-01-25T07:54:13.037Z,26.97
2023-01-25T07:56:41.672Z,30.77
2023-01-25T07:59:12.106Z,25.70
2023-01-25T08:01:41.343Z,25.87
2023-01-25T08:04:10.216Z,25.43
2023-01-25T08:06:40.130Z,28.30
2023-01-25T08:09:14.713Z,28.30
2023-01-25T08:11:43.938Z,25.30
2023-01-25T08:14:12.715Z,21.23
2023-01-25T08:16:41.452Z,20.97
2023-01-25T08:19:12.243Z,23.33
2023-01-25T08:21:41.082Z,25.23
2023-01-25T08:24:10.707Z,24.47
2023-01-25T08:26:39.616Z,21.70
2023-01-25T08:29:11.626Z,25.83
2023-01-25T08:31:45.249Z,23.47
2023-01-25T08:34:15.021Z,24.57
2023-01-25T08:36:43.619Z,25.10
2023-01-25T08:39:14.321Z,24.57
2023-01-25T08:41:43.198Z,27.80
2023-01-25T08:44:12.204Z,26.53
2023-01-25T08:46:41.548Z,23.17
2023-01-25T08:49:10.917Z,23.77
2023-01-25T08:51:39.528Z,24.17
2023-01-25T08:54:11.191Z,24.57
2023-01-25T08:56:43.752Z,20.07
2023-01-25T08:59:15.759Z,20.03
2023-01-25T09:01:44.508Z,23.13
2023-01-25T09:04:13.148Z,22.17
2023-01-25T09:06:41.860Z,21.53
2023-01-25T09:09:10.502Z,24.30
2023-01-25T09:11:40.418Z,22.33
2023-01-25T09:14:09.096Z,24.43
2023-01-25T09:16:37.859Z,23.40
2023-01-25T09:19:06.941Z,28.50
2023-01-25T09:21:37.164Z,23.83
2023-01-25T09:24:08.984Z,20.67
2023-01-25T09:26:45.942Z,33.23
2023-01-25T09:29:18.747Z,22.33
2023-01-25T09:31:47.732Z,24.00
2023-01-25T09:34:17.424Z,25.53
2023-01-25T09:36:46.297Z,23.93
2023-01-25T09:39:15.310Z,26.37
2023-01-25T09:41:51.956Z,29.67
2023-01-25T09:44:23.670Z,27.63
2023-01-25T09:47:00.007Z,27.23
2023-01-25T09:49:31.425Z,25.47
2023-01-25T09:52:46.245Z,24.90
2023-01-25T09:55:18.649Z,30.30
2023-01-25T09:57:51.087Z,27.13
2023-01-25T10:00:37.106Z,24.97
2023-01-25T10:03:32.480Z,26.60
2023-01-25T10:06:03.687Z,23.27
2023-01-25T10:08:46.399Z,20.63
2023-01-25T10:11:33.078Z,26.57
2023-01-25T10:14:02.164Z,27.43
2023-01-25T10:17:01.855Z,23.10
2023-01-25T10:20:28.426Z,23.50
2023-01-25T10:24:06.242Z,20.63
2023-01-25T10:26:38.040Z,20.20
2023-01-25T10:29:30.819Z,23.63
2023-01-25T10:32:32.484Z,18.43
2023-01-25T10:35:34.888Z,22.93
2023-01-25T10:38:14.873Z,19.83
2023-01-25T10:40:52.147Z,21.83
2023-01-25T10:43:23.673Z,23.23
2023-01-25T10:45:53.113Z,18.80
2023-01-25T10:48:31.191Z,21.83
2023-01-25T10:51:02.376Z,20.03
2023-01-25T10:53:42.293Z,19.57
2023-01-25T10:56:26.904Z,19.83
2023-01-25T10:59:20.529Z,18.87
2023-01-25T11:01:49.389Z,21.50
2023-01-25T11:04:38.406Z,21.03
2023-01-25T11:07:07.519Z,22.20
2023-01-25T11:09:40.821Z,20.43
2023-01-25T11:12:21.223Z,19.30
2023-01-25T11:14:51.616Z,22.87
2023-01-25T11:17:32.558Z,22.50
2023-01-25T11:20:22.555Z,20.10
2023-01-25T11:22:57.177Z,21.17
2023-01-25T11:25:35.388Z,17.63
2023-01-25T11:28:18.752Z,20.57
2023-01-25T11:31:02.209Z,21.37
2023-01-25T11:33:32.604Z,22.00
2023-01-25T11:36:21.119Z,20.30
2023-01-25T11:39:33.774Z,22.20
2023-01-25T11:42:02.546Z,23.00
2023-01-25T11:45:24.695Z,18.93
2023-01-25T11:48:23.105Z,21.90
2023-01-25T11:51:51.187Z,21.07
2023-01-25T11:54:47.591Z,21.70
2023-01-25T11:57:50.460Z,21.90
2023-01-25T12:00:32.707Z,17.00
2023-01-25T12:03:58.400Z,21.20
2023-01-25T12:06:30.277Z,21.00
2023-01-25T12:09:01.734Z,23.57
2023-01-25T12:11:36.315Z,21.03
2023-01-25T12:14:11.039Z,20.97
2023-01-25T12:17:14.720Z,22.10
2023-01-25T12:20:09.071Z,21.10
2023-01-25T12:23:16.316Z,20.97
2023-01-25T12:26:09.011Z,22.20
2023-01-25T12:29:18.047Z,23.50
2023-01-25T12:32:04.336Z,23.73
2023-01-25T12:34:42.240Z,20.97
2023-01-25T12:37:20.365Z,21.13
2023-01-25T12:40:22.542Z,22.63
2023-01-25T12:43:01.701Z,19.63
2023-01-25T12:45:36.369Z,20.47
2023-01-25T12:48:22.593Z,21.40
2023-01-25T12:50:58.139Z,21.93
2023-01-25T12:53:26.745Z,23.33
2023-01-25T12:55:56.764Z,23.17
2023-01-25T12:58:51.412Z,22.07
2023-01-25T13:01:28.540Z,21.73
2023-01-25T13:04:43.971Z,21.20
2023-01-25T13:07:31.108Z,21.17
2023-01-25T13:10:01.361Z,24.17
2023-01-25T13:12:30.041Z,24.57
2023-01-25T13:14:59.559Z,22.37
2023-01-25T13:17:38.389Z,23.77
2023-01-25T13:20:41.783Z,22.43
2023-01-25T13:23:43.941Z,20.93
2023-01-25T13:26:24.814Z,21.03
2023-01-25T13:28:56.239Z,20.47
2023-01-25T13:31:53.746Z,23.10
2023-01-25T13:34:37.580Z,19.60
2023-01-25T13:37:26.137Z,22.33
2023-01-25T13:40:24.366Z,19.13
2023-01-25T13:43:23.286Z,23.20
2023-01-25T13:45:53.977Z,25.33
2023-01-25T13:48:37.480Z,21.40
2023-01-25T13:51:14.262Z,21.50
2023-01-25T13:53:43.459Z,23.23
2023-01-25T13:56:31.463Z,22.07
2023-01-25T13:59:00.297Z,20.70
2023-01-25T14:01:32.021Z,20.83
2023-01-25T14:04:05.447Z,23.30
2023-01-25T14:06:42.223Z,25.47
2023-01-25T14:09:29.206Z,24.43
2023-01-25T14:12:03.236Z,21.77
2023-01-25T14:14:36.074Z,22.60
2023-01-25T14:17:17.720Z,25.40
2023-01-25T14:19:57.833Z,23.50
2023-01-25T14:22:27.114Z,24.50
2023-01-25T14:25:13.536Z,27.67
2023-01-25T14:27:54.078Z,22.93
2023-01-25T14:30:30.526Z,20.83
2023-01-25T14:33:20.248Z,26.07
2023-01-25T14:35:56.467Z,22.43
2023-01-25T14:38:37.964Z,19.80
2023-01-25T14:41:30.703Z,20.60
2023-01-25T14:44:05.200Z,22.80
2023-01-25T14:46:37.367Z,22.67
2023-01-25T14:49:14.745Z,23.53
2023-01-25T14:52:26.001Z,22.83
2023-01-25T14:54:58.774Z,22.37
2023-01-25T14:57:39.892Z,22.67
2023-01-25T15:00:34.557Z,19.90
2023-01-25T15:03:07.305Z,17.00
2023-01-25T15:05:38.084Z,23.03
2023-01-25T15:08:09.343Z,23.50
2023-01-25T15:10:40.290Z,17.97
2023-01-25T15:13:15.609Z,19.13
2023-01-25T15:15:54.460Z,22.00
2023-01-25T15:18:42.688Z,21.57
2023-01-25T15:21:22.482Z,22.30
2023-01-25T15:23:51.743Z,21.87
2023-01-25T15:26:28.682Z,21.97
2023-01-25T15:29:20.936Z,22.90
2023-01-25T15:31:51.629Z,23.73
2023-01-25T15:34:32.520Z,23.53
2023-01-25T15:39:54.312Z,21.40
2023-01-25T15:42:23.029Z,20.80
2023-01-25T15:44:51.674Z,27.63
2023-01-25T15:47:20.347Z,24.17
2023-01-25T15:49:49.576Z,20.93
2023-01-25T15:52:18.167Z,24.27
2023-01-25T15:54:55.905Z,20.33
2023-01-25T15:57:34.594Z,21.50
2023-01-25T16:00:03.709Z,23.77
2023-01-25T16:02:32.361Z,24.47
2023-01-25T16:05:01.042Z,22.17
2023-01-25T16:07:31.204Z,23.80
2023-01-25T16:09:59.847Z,21.63
2023-01-25T16:12:28.488Z,21.40
2023-01-25T16:14:57.638Z,26.40
2023-01-25T16:17:27.182Z,25.60
2023-01-25T16:19:55.757Z,25.00
2023-01-25T16:22:24.406Z,27.43
2023-01-25T16:24:53.325Z,26.43
2023-01-25T16:27:25.738Z,26.33
2023-01-25T16:29:56.196Z,29.00
2023-01-25T16:32:24.793Z,24.53
2023-01-25T16:34:53.395Z,25.03
2023-01-25T16:37:22.193Z,22.23
2023-01-25T16:39:52.003Z,22.70
2023-01-25T16:42:22.680Z,20.93
2023-01-25T16:44:51.549Z,23.50
2023-01-25T16:47:20.217Z,27.10
2023-01-25T16:49:48.844Z,24.27
2023-01-25T16:52:17.388Z,25.53
2023-01-25T16:54:46.064Z,23.43
2023-01-25T16:57:20.261Z,22.83
2023-01-25T16:59:49.348Z,20.33
2023-01-25T17:02:18.147Z,18.57
2023-01-25T17:04:46.768Z,19.37
2023-01-25T17:07:15.623Z,21.30
2023-01-25T17:09:44.339Z,24.03
2023-01-25T17:12:14.695Z,24.53
2023-01-25T17:14:43.288Z,20.97
2023-01-25T17:17:11.945Z,23.37
2023-01-25T17:19:40.514Z,24.43
2023-01-25T17:22:09.614Z,23.53
2023-01-25T17:24:38.387Z,25.47
2023-01-25T17:27:07.560Z,23.53
2023-01-25T17:29:36.057Z,24.17
2023-01-25T17:32:04.696Z,22.97
2023-01-25T17:34:33.348Z,20.53
2023-01-25T17:37:01.949Z,22.10
2023-01-25T17:39:30.656Z,24.57
2023-01-25T17:41:59.253Z,22.83
2023-01-25T17:44:28.268Z,23.80
2023-01-25T17:46:56.963Z,25.13
2023-01-25T17:49:26.465Z,22.40
2023-01-25T17:51:55.093Z,19.60
2023-01-25T17:54:23.655Z,19.93
2023-01-25T17:56:54.162Z,23.07
2023-01-25T17:59:22.932Z,22.83
2023-01-25T18:01:51.556Z,21.73
2023-01-25T18:04:20.682Z,18.00
2023-01-25T18:06:49.367Z,22.27
2023-01-25T18:09:17.944Z,15.77
2023-01-25T18:11:48.023Z,17.20
2023-01-25T18:14:17.153Z,17.77
2023-01-25T18:16:46.207Z,17.83
2023-01-25T18:19:15.288Z,17.53
2023-01-25T18:21:43.982Z,20.00
2023-01-25T18:24:34.131Z,20.00
2023-01-25T18:27:24.816Z,17.67
2023-01-25T18:30:35.497Z,20.67
2023-01-25T18:33:05.625Z,21.00
2023-01-25T18:35:35.165Z,21.27
2023-01-25T18:38:03.734Z,20.50
2023-01-25T18:40:32.459Z,20.13
2023-01-25T18:43:01.583Z,23.83
2023-01-25T18:45:30.313Z,22.13
2023-01-25T18:48:00.874Z,21.03
2023-01-25T18:50:31.226Z,20.47
2023-01-25T18:52:59.933Z,19.27
2023-01-25T18:55:28.631Z,19.20
2023-01-25T18:58:04.016Z,15.10
2023-01-25T19:00:34.424Z,15.37
2023-01-25T19:03:03.593Z,18.23
2023-01-25T19:05:32.277Z,16.00
2023-01-25T19:08:00.917Z,16.90
2023-01-25T19:10:29.659Z,21.70
2023-01-25T19:12:58.362Z,17.37
2023-01-25T19:15:27.088Z,22.43
2023-01-25T19:17:55.710Z,17.50
2023-01-25T19:20:24.335Z,17.80
2023-01-25T19:22:55.348Z,17.83
2023-01-25T19:25:24.468Z,18.73
2023-01-25T19:27:53.115Z,19.37
2023-01-25T19:30:21.851Z,18.70
2023-01-25T19:32:50.498Z,16.57
2023-01-25T19:35:19.192Z,23.40
2023-01-25T19:37:47.797Z,21.23
2023-01-25T19:40:17.408Z,22.20
2023-01-25T19:42:45.993Z,18.63
2023-01-25T19:45:14.640Z,19.00
2023-01-25T19:47:43.252Z,21.17
2023-01-25T19:50:12.529Z,22.80
2023-01-25T19:52:41.107Z,23.20
2023-01-25T19:55:10.516Z,20.87
2023-01-25T19:57:39.469Z,21.23
2023-01-25T20:00:08.785Z,21.07
2023-01-25T20:02:37.456Z,21.50
2023-01-25T20:05:06.362Z,21.27
2023-01-25T20:07:34.979Z,21.80
2023-01-25T20:10:03.626Z,21.40
2023-01-25T20:12:32.237Z,21.33
2023-01-25T20:15:00.823Z,23.43
2023-01-25T20:17:29.437Z,23.00
2023-01-25T20:19:58.089Z,22.47
2023-01-25T20:22:26.475Z,22.47
2023-01-25T20:24:55.078Z,22.53
2023-01-25T20:27:23.645Z,25.03
2023-01-25T20:29:53.976Z,23.90
2023-01-25T20:32:32.399Z,23.93
2023-01-25T20:35:03.680Z,22.63
2023-01-25T20:37:32.332Z,26.97
2023-01-25T20:40:00.918Z,24.97
2023-01-25T20:42:29.573Z,23.63
2023-01-25T20:44:58.152Z,24.07
2023-01-25T20:47:26.816Z,25.63
2023-01-25T20:49:55.412Z,24.80
2023-01-25T20:52:24.054Z,22.90
2023-01-25T20:54:53.992Z,25.57
2023-01-25T20:57:22.639Z,24.10
2023-01-25T20:59:51.283Z,23.90
2023-01-25T21:02:19.974Z,22.27
2023-01-25T21:04:48.636Z,24.17
2023-01-25T21:07:17.270Z,25.53
2023-01-25T21:09:45.879Z,23.90
2023-01-25T21:12:14.454Z,26.90
2023-01-25T21:14:43.075Z,26.57
2023-01-25T21:17:12.536Z,24.93
2023-01-25T21:19:41.106Z,26.70
2023-01-25T21:22:09.732Z,23.23
2023-01-25T21:24:38.359Z,25.73
2023-01-25T21:27:08.131Z,27.73
2023-01-25T21:29:36.707Z,26.63
2023-01-25T21:32:05.632Z,23.60
2023-01-25T21:34:34.216Z,25.73
2023-01-25T21:39:31.719Z,25.33
2023-01-25T21:42:00.332Z,26.77
2023-01-25T21:44:46.259Z,27.83
2023-01-25T21:47:29.340Z,28.13
2023-01-25T21:50:16.270Z,27.33
2023-01-25T21:52:45.021Z,29.27
2023-01-25T21:55:13.530Z,28.60
2023-01-25T21:57:47.089Z,26.77
2023-01-25T22:00:17.266Z,27.77
2023-01-25T22:02:45.980Z,29.00
2023-01-25T22:05:14.671Z,25.17
2023-01-25T22:07:43.553Z,28.30
2023-01-25T22:10:12.687Z,27.63
2023-01-25T22:12:41.455Z,25.53
2023-01-25T22:15:10.176Z,29.20
2023-01-25T22:17:39.035Z,29.73
2023-01-25T22:20:08.586Z,30.07
2023-01-25T22:22:37.357Z,28.87
2023-01-25T22:25:06.196Z,29.03
2023-01-25T22:27:53.582Z,29.00
2023-01-25T22:30:22.313Z,28.40
2023-01-25T22:32:50.981Z,30.00
2023-01-25T22:35:19.580Z,31.47
2023-01-25T22:37:48.260Z,31.10
2023-01-25T22:40:16.775Z,28.77
2023-01-25T22:42:45.418Z,27.60
2023-01-25T22:45:14.138Z,28.30
2023-01-25T22:47:44.428Z,26.30
2023-01-25T22:50:13.220Z,26.77
2023-01-25T22:52:42.086Z,29.33
2023-01-25T22:55:10.879Z,30.27
2023-01-25T22:57:39.599Z,27.13
2023-01-25T23:00:10.878Z,28.83
2023-01-25T23:02:39.691Z,29.77
2023-01-25T23:05:08.901Z,28.27
2023-01-25T23:07:37.546Z,28.93
2023-01-25T23:10:06.593Z,28.97
2023-01-25T23:12:35.222Z,27.20
2023-01-25T23:15:07.164Z,28.93
2023-01-25T23:17:53.186Z,30.47
2023-01-25T23:20:21.838Z,26.20
2023-01-25T23:22:52.652Z,27.27
2023-01-25T23:25:21.287Z,26.23
2023-01-25T23:27:51.077Z,30.17
2023-01-25T23:30:19.578Z,31.67
2023-01-25T23:32:49.404Z,29.30
2023-01-25T23:35:20.958Z,29.53
2023-01-25T23:37:50.037Z,27.60
2023-01-25T23:40:18.794Z,25.53
2023-01-25T23:42:47.307Z,26.47
2023-01-25T23:45:16.007Z,29.57
2023-01-25T23:47:44.632Z,24.07
2023-01-25T23:50:13.715Z,25.87
2023-01-25T23:52:42.472Z,28.80
2023-01-25T23:55:11.295Z,24.67
2023-01-25T23:57:39.967Z,26.60
